sensor_id;sensor_type;location;lat;lon;timestamp;P1;durP1;ratioP1;P2;durP2;ratioP2
18338;SDS011;9295;44.484;11.240;2023-06-24T00:00:48;25.47;;;8.10;;
18338;SDS011;9295;44.484;11.240;2023-06-24T00:03:18;24.03;;;8.70;;
18338;SDS011;9295;44.484;11.240;2023-06-24T00:05:48;15.17;;;7.97;;
18338;SDS011;9295;44.484;11.240;2023-06-24T00:08:18;19.27;;;7.23;;
18338;SDS011;9295;44.484;11.240;2023-06-24T00:10:49;17.30;;;7.17;;
18338;SDS011;9295;44.484;11.240;2023-06-24T00:13:18;15.13;;;5.77;;
18338;SDS011;9295;44.484;11.240;2023-06-24T00:15:46;17.27;;;6.90;;
18338;SDS011;9295;44.484;11.240;2023-06-24T00:18:15;17.23;;;6.73;;
18338;SDS011;9295;44.484;11.240;2023-06-24T00:20:43;20.23;;;6.50;;
18338;SDS011;9295;44.484;11.240;2023-06-24T00:23:13;13.40;;;6.90;;
18338;SDS011;9295;44.484;11.240;2023-06-24T00:25:51;20.67;;;6.70;;
18338;SDS011;9295;44.484;11.240;2023-06-24T00:28:20;22.17;;;7.10;;
18338;SDS011;9295;44.484;11.240;2023-06-24T00:30:49;26.07;;;6.70;;
18338;SDS011;9295;44.484;11.240;2023-06-24T00:33:17;12.93;;;5.77;;
18338;SDS011;9295;44.484;11.240;2023-06-24T00:35:47;18.53;;;6.40;;
18338;SDS011;9295;44.484;11.240;2023-06-24T00:38:17;13.20;;;6.23;;
18338;SDS011;9295;44.484;11.240;2023-06-24T00:40:45;15.20;;;6.10;;
18338;SDS011;9295;44.484;11.240;2023-06-24T00:43:14;18.20;;;7.40;;
18338;SDS011;9295;44.484;11.240;2023-06-24T00:45:42;18.10;;;5.90;;
18338;SDS011;9295;44.484;11.240;2023-06-24T00:48:14;10.90;;;5.80;;
18338;SDS011;9295;44.484;11.240;2023-06-24T00:50:43;14.93;;;6.00;;
18338;SDS011;9295;44.484;11.240;2023-06-24T00:53:12;14.53;;;5.67;;
18338;SDS011;9295;44.484;11.240;2023-06-24T00:55:42;13.47;;;6.07;;
18338;SDS011;9295;44.484;11.240;2023-06-24T00:58:12;12.83;;;6.17;;
18338;SDS011;9295;44.484;11.240;2023-06-24T01:00:43;20.70;;;6.33;;
18338;SDS011;9295;44.484;11.240;2023-06-24T01:03:13;18.30;;;7.40;;
18338;SDS011;9295;44.484;11.240;2023-06-24T01:05:43;19.87;;;7.93;;
18338;SDS011;9295;44.484;11.240;2023-06-24T01:08:13;15.63;;;10.30;;
18338;SDS011;9295;44.484;11.240;2023-06-24T01:10:46;14.70;;;6.90;;
18338;SDS011;9295;44.484;11.240;2023-06-24T01:13:17;15.93;;;6.73;;
18338;SDS011;9295;44.484;11.240;2023-06-24T01:15:47;16.33;;;6.03;;
18338;SDS011;9295;44.484;11.240;2023-06-24T01:18:18;16.73;;;6.50;;
18338;SDS011;9295;44.484;11.240;2023-06-24T01:20:55;11.77;;;6.90;;
18338;SDS011;9295;44.484;11.240;2023-06-24T01:23:35;16.43;;;9.23;;
18338;SDS011;9295;44.484;11.240;2023-06-24T01:26:31;22.53;;;8.37;;
18338;SDS011;9295;44.484;11.240;2023-06-24T01:29:34;14.97;;;7.67;;
18338;SDS011;9295;44.484;11.240;2023-06-24T01:32:23;14.90;;;7.70;;
18338;SDS011;9295;44.484;11.240;2023-06-24T01:34:57;20.27;;;9.10;;
18338;SDS011;9295;44.484;11.240;2023-06-24T01:37:30;19.47;;;9.20;;
18338;SDS011;9295;44.484;11.240;2023-06-24T01:40:04;23.37;;;8.20;;
18338;SDS011;9295;44.484;11.240;2023-06-24T01:42:39;17.63;;;6.87;;
18338;SDS011;9295;44.484;11.240;2023-06-24T01:45:12;20.60;;;7.97;;
18338;SDS011;9295;44.484;11.240;2023-06-24T01:47:44;14.27;;;7.17;;
18338;SDS011;9295;44.484;11.240;2023-06-24T01:50:16;12.00;;;6.93;;
18338;SDS011;9295;44.484;11.240;2023-06-24T01:52:49;17.53;;;7.70;;
18338;SDS011;9295;44.484;11.240;2023-06-24T01:55:21;14.90;;;7.27;;
18338;SDS011;9295;44.484;11.240;2023-06-24T01:57:51;13.77;;;7.07;;
18338;SDS011;9295;44.484;11.240;2023-06-24T02:00:22;21.00;;;6.63;;
18338;SDS011;9295;44.484;11.240;2023-06-24T02:02:53;19.07;;;7.07;;
18338;SDS011;9295;44.484;11.240;2023-06-24T02:05:23;13.33;;;5.90;;
18338;SDS011;9295;44.484;11.240;2023-06-24T02:07:53;12.90;;;6.50;;
18338;SDS011;9295;44.484;11.240;2023-06-24T02:10:23;25.47;;;8.80;;
18338;SDS011;9295;44.484;11.240;2023-06-24T02:12:54;17.93;;;9.07;;
18338;SDS011;9295;44.484;11.240;2023-06-24T02:15:24;17.37;;;9.70;;
18338;SDS011;9295;44.484;11.240;2023-06-24T02:17:57;15.20;;;9.37;;
18338;SDS011;9295;44.484;11.240;2023-06-24T02:20:28;17.87;;;6.90;;
18338;SDS011;9295;44.484;11.240;2023-06-24T02:22:58;15.80;;;7.50;;
18338;SDS011;9295;44.484;11.240;2023-06-24T02:25:27;16.40;;;5.67;;
18338;SDS011;9295;44.484;11.240;2023-06-24T02:27:57;13.90;;;6.23;;
18338;SDS011;9295;44.484;11.240;2023-06-24T02:30:26;16.73;;;7.20;;
18338;SDS011;9295;44.484;11.240;2023-06-24T02:32:57;14.50;;;7.03;;
18338;SDS011;9295;44.484;11.240;2023-06-24T02:35:26;14.53;;;6.30;;
18338;SDS011;9295;44.484;11.240;2023-06-24T02:37:54;12.40;;;6.00;;
18338;SDS011;9295;44.484;11.240;2023-06-24T02:40:23;13.63;;;6.90;;
18338;SDS011;9295;44.484;11.240;2023-06-24T02:42:52;12.70;;;6.70;;
18338;SDS011;9295;44.484;11.240;2023-06-24T02:45:21;16.13;;;6.77;;
18338;SDS011;9295;44.484;11.240;2023-06-24T02:47:50;17.33;;;7.10;;
18338;SDS011;9295;44.484;11.240;2023-06-24T02:50:21;14.00;;;6.67;;
18338;SDS011;9295;44.484;11.240;2023-06-24T02:52:51;10.37;;;5.60;;
18338;SDS011;9295;44.484;11.240;2023-06-24T02:55:23;14.77;;;7.00;;
18338;SDS011;9295;44.484;11.240;2023-06-24T02:57:58;12.00;;;5.97;;
18338;SDS011;9295;44.484;11.240;2023-06-24T03:00:43;14.57;;;5.50;;
18338;SDS011;9295;44.484;11.240;2023-06-24T03:03:26;19.43;;;6.50;;
18338;SDS011;9295;44.484;11.240;2023-06-24T03:05:58;17.07;;;6.07;;
18338;SDS011;9295;44.484;11.240;2023-06-24T03:08:29;12.40;;;5.67;;
18338;SDS011;9295;44.484;11.240;2023-06-24T03:10:58;10.90;;;5.50;;
18338;SDS011;9295;44.484;11.240;2023-06-24T03:13:29;17.73;;;6.10;;
18338;SDS011;9295;44.484;11.240;2023-06-24T03:16:18;10.10;;;5.40;;
18338;SDS011;9295;44.484;11.240;2023-06-24T03:19:01;12.67;;;5.90;;
18338;SDS011;9295;44.484;11.240;2023-06-24T03:21:31;16.60;;;6.47;;
18338;SDS011;9295;44.484;11.240;2023-06-24T03:24:10;25.10;;;5.87;;
18338;SDS011;9295;44.484;11.240;2023-06-24T03:26:40;10.77;;;5.47;;
18338;SDS011;9295;44.484;11.240;2023-06-24T03:29:12;10.93;;;5.63;;
18338;SDS011;9295;44.484;11.240;2023-06-24T03:31:49;9.30;;;5.43;;
18338;SDS011;9295;44.484;11.240;2023-06-24T03:34:21;9.83;;;5.13;;
18338;SDS011;9295;44.484;11.240;2023-06-24T03:36:53;17.60;;;6.70;;
18338;SDS011;9295;44.484;11.240;2023-06-24T03:39:22;10.37;;;5.63;;
18338;SDS011;9295;44.484;11.240;2023-06-24T03:41:51;15.23;;;6.50;;
18338;SDS011;9295;44.484;11.240;2023-06-24T03:44:21;12.77;;;6.33;;
18338;SDS011;9295;44.484;11.240;2023-06-24T03:46:49;18.23;;;6.90;;
18338;SDS011;9295;44.484;11.240;2023-06-24T03:49:18;16.70;;;5.70;;
18338;SDS011;9295;44.484;11.240;2023-06-24T03:51:47;13.93;;;6.50;;
18338;SDS011;9295;44.484;11.240;2023-06-24T03:54:17;8.87;;;5.47;;
18338;SDS011;9295;44.484;11.240;2023-06-24T03:56:47;15.37;;;5.67;;
18338;SDS011;9295;44.484;11.240;2023-06-24T03:59:16;20.20;;;6.47;;
18338;SDS011;9295;44.484;11.240;2023-06-24T04:01:45;17.70;;;5.60;;
18338;SDS011;9295;44.484;11.240;2023-06-24T04:04:13;7.90;;;5.37;;
18338;SDS011;9295;44.484;11.240;2023-06-24T04:06:42;13.73;;;5.30;;
18338;SDS011;9295;44.484;11.240;2023-06-24T04:09:13;15.10;;;5.17;;
18338;SDS011;9295;44.484;11.240;2023-06-24T04:11:43;15.70;;;5.63;;
18338;SDS011;9295;44.484;11.240;2023-06-24T04:14:11;16.80;;;5.57;;
18338;SDS011;9295;44.484;11.240;2023-06-24T04:16:40;10.67;;;5.40;;
18338;SDS011;9295;44.484;11.240;2023-06-24T04:19:09;13.63;;;5.60;;
18338;SDS011;9295;44.484;11.240;2023-06-24T04:21:37;12.87;;;5.23;;
18338;SDS011;9295;44.484;11.240;2023-06-24T04:24:06;12.90;;;5.50;;
18338;SDS011;9295;44.484;11.240;2023-06-24T04:26:35;12.77;;;5.57;;
18338;SDS011;9295;44.484;11.240;2023-06-24T04:29:05;12.00;;;5.67;;
18338;SDS011;9295;44.484;11.240;2023-06-24T04:31:33;10.37;;;6.10;;
18338;SDS011;9295;44.484;11.240;2023-06-24T04:34:02;15.80;;;6.40;;
18338;SDS011;9295;44.484;11.240;2023-06-24T04:36:32;18.97;;;6.37;;
18338;SDS011;9295;44.484;11.240;2023-06-24T04:39:02;16.27;;;6.17;;
18338;SDS011;9295;44.484;11.240;2023-06-24T04:41:31;11.43;;;6.10;;
18338;SDS011;9295;44.484;11.240;2023-06-24T04:43:59;19.03;;;6.47;;
18338;SDS011;9295;44.484;11.240;2023-06-24T04:46:29;12.83;;;5.57;;
18338;SDS011;9295;44.484;11.240;2023-06-24T04:48:59;16.47;;;5.50;;
18338;SDS011;9295;44.484;11.240;2023-06-24T04:51:28;23.63;;;6.17;;
18338;SDS011;9295;44.484;11.240;2023-06-24T04:53:56;11.13;;;4.90;;
18338;SDS011;9295;44.484;11.240;2023-06-24T04:56:25;12.67;;;5.30;;
18338;SDS011;9295;44.484;11.240;2023-06-24T04:58:55;13.50;;;4.80;;
18338;SDS011;9295;44.484;11.240;2023-06-24T05:01:23;9.27;;;4.07;;
18338;SDS011;9295;44.484;11.240;2023-06-24T05:03:53;16.53;;;4.60;;
18338;SDS011;9295;44.484;11.240;2023-06-24T05:06:22;17.80;;;4.40;;
18338;SDS011;9295;44.484;11.240;2023-06-24T05:08:51;12.43;;;4.87;;
18338;SDS011;9295;44.484;11.240;2023-06-24T05:11:19;14.07;;;4.57;;
18338;SDS011;9295;44.484;11.240;2023-06-24T05:13:48;15.20;;;4.40;;
18338;SDS011;9295;44.484;11.240;2023-06-24T05:16:16;12.03;;;4.17;;
18338;SDS011;9295;44.484;11.240;2023-06-24T05:18:45;14.53;;;4.40;;
18338;SDS011;9295;44.484;11.240;2023-06-24T05:21:15;11.80;;;4.63;;
18338;SDS011;9295;44.484;11.240;2023-06-24T05:23:44;11.63;;;4.40;;
18338;SDS011;9295;44.484;11.240;2023-06-24T05:26:13;7.80;;;4.20;;
18338;SDS011;9295;44.484;11.240;2023-06-24T05:28:42;9.97;;;4.07;;
18338;SDS011;9295;44.484;11.240;2023-06-24T05:31:10;13.07;;;5.10;;
18338;SDS011;9295;44.484;11.240;2023-06-24T05:33:39;9.30;;;4.37;;
18338;SDS011;9295;44.484;11.240;2023-06-24T05:36:07;10.93;;;4.57;;
18338;SDS011;9295;44.484;11.240;2023-06-24T05:38:37;10.37;;;4.30;;
18338;SDS011;9295;44.484;11.240;2023-06-24T05:41:06;12.80;;;4.47;;
18338;SDS011;9295;44.484;11.240;2023-06-24T05:43:34;6.67;;;3.80;;
18338;SDS011;9295;44.484;11.240;2023-06-24T05:46:05;8.23;;;4.07;;
18338;SDS011;9295;44.484;11.240;2023-06-24T05:48:34;9.90;;;4.10;;
18338;SDS011;9295;44.484;11.240;2023-06-24T05:51:02;7.50;;;3.90;;
18338;SDS011;9295;44.484;11.240;2023-06-24T05:53:31;7.87;;;3.70;;
18338;SDS011;9295;44.484;11.240;2023-06-24T05:56:01;8.00;;;3.83;;
18338;SDS011;9295;44.484;11.240;2023-06-24T05:58:30;14.93;;;3.97;;
18338;SDS011;9295;44.484;11.240;2023-06-24T06:00:58;9.50;;;4.00;;
18338;SDS011;9295;44.484;11.240;2023-06-24T06:03:28;12.17;;;4.27;;
18338;SDS011;9295;44.484;11.240;2023-06-24T06:05:57;5.60;;;4.00;;
18338;SDS011;9295;44.484;11.240;2023-06-24T06:08:25;11.83;;;4.03;;
18338;SDS011;9295;44.484;11.240;2023-06-24T06:10:54;12.57;;;3.90;;
18338;SDS011;9295;44.484;11.240;2023-06-24T06:13:24;8.00;;;3.83;;
18338;SDS011;9295;44.484;11.240;2023-06-24T06:15:52;9.63;;;4.40;;
18338;SDS011;9295;44.484;11.240;2023-06-24T06:18:21;9.73;;;4.00;;
18338;SDS011;9295;44.484;11.240;2023-06-24T06:20:50;20.58;;;4.40;;
18338;SDS011;9295;44.484;11.240;2023-06-24T06:23:18;16.02;;;4.10;;
18338;SDS011;9295;44.484;11.240;2023-06-24T06:25:47;7.68;;;4.13;;
18338;SDS011;9295;44.484;11.240;2023-06-24T06:28:16;8.07;;;4.05;;
18338;SDS011;9295;44.484;11.240;2023-06-24T06:30:46;10.38;;;4.15;;
18338;SDS011;9295;44.484;11.240;2023-06-24T06:33:14;12.13;;;4.00;;
18338;SDS011;9295;44.484;11.240;2023-06-24T06:35:43;19.45;;;4.28;;
18338;SDS011;9295;44.484;11.240;2023-06-24T06:38:12;8.88;;;3.55;;
18338;SDS011;9295;44.484;11.240;2023-06-24T06:40:41;21.95;;;4.10;;
18338;SDS011;9295;44.484;11.240;2023-06-24T06:43:09;10.73;;;4.13;;
18338;SDS011;9295;44.484;11.240;2023-06-24T06:45:38;8.27;;;4.07;;
18338;SDS011;9295;44.484;11.240;2023-06-24T06:48:08;10.73;;;3.85;;
18338;SDS011;9295;44.484;11.240;2023-06-24T06:50:37;9.93;;;3.70;;
18338;SDS011;9295;44.484;11.240;2023-06-24T06:53:05;12.18;;;3.50;;
18338;SDS011;9295;44.484;11.240;2023-06-24T06:55:35;6.70;;;3.78;;
18338;SDS011;9295;44.484;11.240;2023-06-24T06:58:06;8.82;;;3.67;;
18338;SDS011;9295;44.484;11.240;2023-06-24T07:00:34;10.63;;;3.50;;
18338;SDS011;9295;44.484;11.240;2023-06-24T07:03:03;9.70;;;3.58;;
18338;SDS011;9295;44.484;11.240;2023-06-24T07:05:33;7.00;;;4.03;;
18338;SDS011;9295;44.484;11.240;2023-06-24T07:08:05;7.40;;;3.75;;
18338;SDS011;9295;44.484;11.240;2023-06-24T07:10:34;8.10;;;3.70;;
18338;SDS011;9295;44.484;11.240;2023-06-24T07:13:02;8.02;;;3.38;;
18338;SDS011;9295;44.484;11.240;2023-06-24T07:15:31;9.35;;;3.83;;
18338;SDS011;9295;44.484;11.240;2023-06-24T07:18:00;11.23;;;4.22;;
18338;SDS011;9295;44.484;11.240;2023-06-24T07:20:28;10.23;;;4.70;;
18338;SDS011;9295;44.484;11.240;2023-06-24T07:22:58;8.30;;;4.07;;
18338;SDS011;9295;44.484;11.240;2023-06-24T07:25:27;9.70;;;4.47;;
18338;SDS011;9295;44.484;11.240;2023-06-24T07:27:56;9.50;;;4.30;;
18338;SDS011;9295;44.484;11.240;2023-06-24T07:30:24;17.47;;;4.70;;
18338;SDS011;9295;44.484;11.240;2023-06-24T07:32:53;9.13;;;4.47;;
18338;SDS011;9295;44.484;11.240;2023-06-24T07:35:22;8.67;;;4.87;;
18338;SDS011;9295;44.484;11.240;2023-06-24T07:37:50;8.57;;;4.50;;
18338;SDS011;9295;44.484;11.240;2023-06-24T07:40:21;10.33;;;4.07;;
18338;SDS011;9295;44.484;11.240;2023-06-24T07:42:50;12.83;;;4.83;;
18338;SDS011;9295;44.484;11.240;2023-06-24T07:45:18;10.53;;;4.30;;
18338;SDS011;9295;44.484;11.240;2023-06-24T07:47:47;11.40;;;4.50;;
18338;SDS011;9295;44.484;11.240;2023-06-24T07:50:15;6.40;;;4.27;;
18338;SDS011;9295;44.484;11.240;2023-06-24T07:52:44;10.07;;;4.60;;
18338;SDS011;9295;44.484;11.240;2023-06-24T07:55:13;11.77;;;4.90;;
18338;SDS011;9295;44.484;11.240;2023-06-24T07:57:45;9.93;;;4.40;;
18338;SDS011;9295;44.484;11.240;2023-06-24T08:00:14;7.10;;;4.17;;
18338;SDS011;9295;44.484;11.240;2023-06-24T08:02:44;6.83;;;4.20;;
18338;SDS011;9295;44.484;11.240;2023-06-24T08:05:12;6.47;;;4.20;;
18338;SDS011;9295;44.484;11.240;2023-06-24T08:07:41;9.57;;;4.73;;
18338;SDS011;9295;44.484;11.240;2023-06-24T08:10:10;12.37;;;4.50;;
18338;SDS011;9295;44.484;11.240;2023-06-24T08:12:38;13.13;;;5.13;;
18338;SDS011;9295;44.484;11.240;2023-06-24T08:15:09;8.47;;;3.90;;
18338;SDS011;9295;44.484;11.240;2023-06-24T08:17:38;9.33;;;4.57;;
18338;SDS011;9295;44.484;11.240;2023-06-24T08:20:07;7.20;;;4.03;;
18338;SDS011;9295;44.484;11.240;2023-06-24T08:22:36;9.93;;;5.00;;
18338;SDS011;9295;44.484;11.240;2023-06-24T08:25:05;9.43;;;4.37;;
18338;SDS011;9295;44.484;11.240;2023-06-24T08:27:33;7.13;;;3.80;;
18338;SDS011;9295;44.484;11.240;2023-06-24T08:30:04;14.67;;;4.67;;
18338;SDS011;9295;44.484;11.240;2023-06-24T08:32:35;9.50;;;4.20;;
18338;SDS011;9295;44.484;11.240;2023-06-24T08:35:03;9.93;;;4.50;;
18338;SDS011;9295;44.484;11.240;2023-06-24T08:37:33;7.40;;;4.03;;
18338;SDS011;9295;44.484;11.240;2023-06-24T08:40:02;6.47;;;3.87;;
18338;SDS011;9295;44.484;11.240;2023-06-24T08:42:32;16.03;;;4.37;;
18338;SDS011;9295;44.484;11.240;2023-06-24T08:45:01;7.73;;;3.47;;
18338;SDS011;9295;44.484;11.240;2023-06-24T08:47:30;6.90;;;3.97;;
18338;SDS011;9295;44.484;11.240;2023-06-24T08:50:01;12.90;;;3.77;;
18338;SDS011;9295;44.484;11.240;2023-06-24T08:52:35;9.00;;;4.27;;
18338;SDS011;9295;44.484;11.240;2023-06-24T08:55:04;4.90;;;3.43;;
18338;SDS011;9295;44.484;11.240;2023-06-24T08:57:37;10.40;;;4.30;;
18338;SDS011;9295;44.484;11.240;2023-06-24T09:00:07;6.10;;;3.70;;
18338;SDS011;9295;44.484;11.240;2023-06-24T09:02:37;6.93;;;3.77;;
18338;SDS011;9295;44.484;11.240;2023-06-24T09:05:08;9.37;;;4.40;;
18338;SDS011;9295;44.484;11.240;2023-06-24T09:07:36;5.90;;;3.70;;
18338;SDS011;9295;44.484;11.240;2023-06-24T09:10:05;8.90;;;3.97;;
18338;SDS011;9295;44.484;11.240;2023-06-24T09:12:35;7.20;;;3.60;;
18338;SDS011;9295;44.484;11.240;2023-06-24T09:15:04;9.40;;;3.87;;
18338;SDS011;9295;44.484;11.240;2023-06-24T09:17:33;8.93;;;3.97;;
18338;SDS011;9295;44.484;11.240;2023-06-24T09:20:14;9.37;;;4.27;;
18338;SDS011;9295;44.484;11.240;2023-06-24T09:22:48;6.87;;;3.50;;
18338;SDS011;9295;44.484;11.240;2023-06-24T09:25:17;7.90;;;3.50;;
18338;SDS011;9295;44.484;11.240;2023-06-24T09:27:49;8.57;;;3.73;;
18338;SDS011;9295;44.484;11.240;2023-06-24T09:30:19;6.33;;;3.70;;
18338;SDS011;9295;44.484;11.240;2023-06-24T09:32:49;8.50;;;4.20;;
18338;SDS011;9295;44.484;11.240;2023-06-24T09:35:20;6.90;;;3.57;;
18338;SDS011;9295;44.484;11.240;2023-06-24T09:37:50;6.37;;;3.70;;
18338;SDS011;9295;44.484;11.240;2023-06-24T09:40:19;8.53;;;3.77;;
18338;SDS011;9295;44.484;11.240;2023-06-24T09:42:48;9.30;;;4.03;;
18338;SDS011;9295;44.484;11.240;2023-06-24T09:45:22;9.93;;;4.43;;
18338;SDS011;9295;44.484;11.240;2023-06-24T09:47:51;6.60;;;4.00;;
18338;SDS011;9295;44.484;11.240;2023-06-24T09:50:22;11.27;;;4.80;;
18338;SDS011;9295;44.484;11.240;2023-06-24T09:52:50;7.83;;;3.80;;
18338;SDS011;9295;44.484;11.240;2023-06-24T09:55:22;10.90;;;3.77;;
18338;SDS011;9295;44.484;11.240;2023-06-24T09:57:52;8.27;;;3.87;;
18338;SDS011;9295;44.484;11.240;2023-06-24T10:00:22;10.23;;;3.90;;
18338;SDS011;9295;44.484;11.240;2023-06-24T10:02:53;8.60;;;4.57;;
18338;SDS011;9295;44.484;11.240;2023-06-24T10:05:28;8.03;;;3.77;;
18338;SDS011;9295;44.484;11.240;2023-06-24T10:07:57;18.83;;;5.03;;
18338;SDS011;9295;44.484;11.240;2023-06-24T10:10:25;6.77;;;3.90;;
18338;SDS011;9295;44.484;11.240;2023-06-24T10:12:54;6.80;;;3.83;;
18338;SDS011;9295;44.484;11.240;2023-06-24T10:15:23;5.70;;;3.70;;
18338;SDS011;9295;44.484;11.240;2023-06-24T10:17:51;8.13;;;4.27;;
18338;SDS011;9295;44.484;11.240;2023-06-24T10:20:41;12.37;;;4.30;;
18338;SDS011;9295;44.484;11.240;2023-06-24T10:23:15;6.77;;;3.60;;
18338;SDS011;9295;44.484;11.240;2023-06-24T10:25:43;10.60;;;4.27;;
18338;SDS011;9295;44.484;11.240;2023-06-24T10:28:15;7.60;;;4.10;;
18338;SDS011;9295;44.484;11.240;2023-06-24T10:30:51;6.70;;;4.10;;
18338;SDS011;9295;44.484;11.240;2023-06-24T10:33:23;5.60;;;3.43;;
18338;SDS011;9295;44.484;11.240;2023-06-24T10:35:53;7.13;;;3.70;;
18338;SDS011;9295;44.484;11.240;2023-06-24T10:38:22;5.73;;;3.10;;
18338;SDS011;9295;44.484;11.240;2023-06-24T10:40:50;9.10;;;3.90;;
18338;SDS011;9295;44.484;11.240;2023-06-24T10:43:26;7.03;;;3.70;;
18338;SDS011;9295;44.484;11.240;2023-06-24T10:45:56;7.70;;;3.53;;
18338;SDS011;9295;44.484;11.240;2023-06-24T10:48:26;6.60;;;3.83;;
18338;SDS011;9295;44.484;11.240;2023-06-24T10:50:56;5.50;;;3.10;;
18338;SDS011;9295;44.484;11.240;2023-06-24T10:53:25;5.80;;;3.40;;
18338;SDS011;9295;44.484;11.240;2023-06-24T10:55:57;9.67;;;3.40;;
18338;SDS011;9295;44.484;11.240;2023-06-24T10:58:26;10.20;;;3.70;;
18338;SDS011;9295;44.484;11.240;2023-06-24T11:01:05;6.47;;;2.80;;
18338;SDS011;9295;44.484;11.240;2023-06-24T11:03:35;10.63;;;3.20;;
18338;SDS011;9295;44.484;11.240;2023-06-24T11:06:09;7.07;;;3.30;;
18338;SDS011;9295;44.484;11.240;2023-06-24T11:08:45;6.23;;;3.93;;
18338;SDS011;9295;44.484;11.240;2023-06-24T11:11:32;8.10;;;3.67;;
18338;SDS011;9295;44.484;11.240;2023-06-24T11:14:01;6.57;;;3.23;;
18338;SDS011;9295;44.484;11.240;2023-06-24T11:16:31;7.90;;;3.53;;
18338;SDS011;9295;44.484;11.240;2023-06-24T11:19:00;11.03;;;3.80;;
18338;SDS011;9295;44.484;11.240;2023-06-24T11:21:31;8.03;;;3.37;;
18338;SDS011;9295;44.484;11.240;2023-06-24T11:24:00;5.57;;;3.67;;
18338;SDS011;9295;44.484;11.240;2023-06-24T11:26:29;5.30;;;3.60;;
18338;SDS011;9295;44.484;11.240;2023-06-24T11:28:58;7.50;;;3.20;;
18338;SDS011;9295;44.484;11.240;2023-06-24T11:31:27;7.00;;;3.53;;
18338;SDS011;9295;44.484;11.240;2023-06-24T11:33:56;6.47;;;3.00;;
18338;SDS011;9295;44.484;11.240;2023-06-24T11:36:25;6.20;;;2.90;;
18338;SDS011;9295;44.484;11.240;2023-06-24T11:38:55;5.07;;;3.33;;
18338;SDS011;9295;44.484;11.240;2023-06-24T11:41:23;9.23;;;2.90;;
18338;SDS011;9295;44.484;11.240;2023-06-24T11:43:54;6.23;;;3.07;;
18338;SDS011;9295;44.484;11.240;2023-06-24T11:46:25;5.23;;;2.87;;
18338;SDS011;9295;44.484;11.240;2023-06-24T11:49:02;5.00;;;2.93;;
18338;SDS011;9295;44.484;11.240;2023-06-24T11:51:31;8.70;;;3.20;;
18338;SDS011;9295;44.484;11.240;2023-06-24T11:54:02;6.00;;;2.50;;
18338;SDS011;9295;44.484;11.240;2023-06-24T11:56:34;7.33;;;3.00;;
18338;SDS011;9295;44.484;11.240;2023-06-24T11:59:03;5.97;;;2.83;;
18338;SDS011;9295;44.484;11.240;2023-06-24T12:01:33;6.13;;;3.50;;
18338;SDS011;9295;44.484;11.240;2023-06-24T12:04:09;4.63;;;2.80;;
18338;SDS011;9295;44.484;11.240;2023-06-24T12:06:38;7.13;;;3.13;;
18338;SDS011;9295;44.484;11.240;2023-06-24T12:09:08;13.90;;;3.03;;
18338;SDS011;9295;44.484;11.240;2023-06-24T12:11:37;6.03;;;2.87;;
18338;SDS011;9295;44.484;11.240;2023-06-24T12:14:06;4.40;;;2.60;;
18338;SDS011;9295;44.484;11.240;2023-06-24T12:16:36;7.30;;;2.60;;
18338;SDS011;9295;44.484;11.240;2023-06-24T12:19:06;8.17;;;3.00;;
18338;SDS011;9295;44.484;11.240;2023-06-24T12:21:35;5.03;;;2.77;;
18338;SDS011;9295;44.484;11.240;2023-06-24T12:24:04;4.60;;;2.00;;
18338;SDS011;9295;44.484;11.240;2023-06-24T12:26:35;7.30;;;2.70;;
18338;SDS011;9295;44.484;11.240;2023-06-24T12:29:04;18.97;;;3.23;;
18338;SDS011;9295;44.484;11.240;2023-06-24T12:31:34;8.37;;;2.70;;
18338;SDS011;9295;44.484;11.240;2023-06-24T12:34:02;4.97;;;2.50;;
18338;SDS011;9295;44.484;11.240;2023-06-24T12:36:32;3.90;;;2.60;;
18338;SDS011;9295;44.484;11.240;2023-06-24T12:39:00;4.57;;;2.93;;
18338;SDS011;9295;44.484;11.240;2023-06-24T12:41:30;3.40;;;1.97;;
18338;SDS011;9295;44.484;11.240;2023-06-24T12:44:01;5.90;;;2.70;;
18338;SDS011;9295;44.484;11.240;2023-06-24T12:46:30;5.60;;;2.50;;
18338;SDS011;9295;44.484;11.240;2023-06-24T12:48:58;3.97;;;2.50;;
18338;SDS011;9295;44.484;11.240;2023-06-24T12:51:27;4.90;;;1.93;;
18338;SDS011;9295;44.484;11.240;2023-06-24T12:53:55;4.50;;;2.50;;
18338;SDS011;9295;44.484;11.240;2023-06-24T12:56:24;6.30;;;2.83;;
18338;SDS011;9295;44.484;11.240;2023-06-24T12:58:53;3.33;;;2.13;;
18338;SDS011;9295;44.484;11.240;2023-06-24T13:01:23;5.77;;;2.00;;
18338;SDS011;9295;44.484;11.240;2023-06-24T13:03:51;5.03;;;2.37;;
18338;SDS011;9295;44.484;11.240;2023-06-24T13:06:20;4.63;;;2.03;;
18338;SDS011;9295;44.484;11.240;2023-06-24T13:08:49;3.33;;;2.00;;
18338;SDS011;9295;44.484;11.240;2023-06-24T13:11:18;9.23;;;2.10;;
18338;SDS011;9295;44.484;11.240;2023-06-24T13:13:47;8.30;;;2.30;;
18338;SDS011;9295;44.484;11.240;2023-06-24T13:16:15;3.20;;;1.93;;
18338;SDS011;9295;44.484;11.240;2023-06-24T13:18:46;4.80;;;2.10;;
18338;SDS011;9295;44.484;11.240;2023-06-24T13:21:15;4.10;;;2.37;;
18338;SDS011;9295;44.484;11.240;2023-06-24T13:23:44;2.83;;;1.60;;
18338;SDS011;9295;44.484;11.240;2023-06-24T13:26:13;5.90;;;1.80;;
18338;SDS011;9295;44.484;11.240;2023-06-24T13:28:42;4.83;;;1.90;;
18338;SDS011;9295;44.484;11.240;2023-06-24T13:31:11;2.83;;;1.70;;
18338;SDS011;9295;44.484;11.240;2023-06-24T13:33:42;2.90;;;1.57;;
18338;SDS011;9295;44.484;11.240;2023-06-24T13:36:13;6.60;;;2.27;;
18338;SDS011;9295;44.484;11.240;2023-06-24T13:38:56;5.00;;;1.80;;
18338;SDS011;9295;44.484;11.240;2023-06-24T13:41:25;3.40;;;1.80;;
18338;SDS011;9295;44.484;11.240;2023-06-24T13:43:56;5.00;;;1.87;;
18338;SDS011;9295;44.484;11.240;2023-06-24T13:46:26;3.50;;;1.90;;
18338;SDS011;9295;44.484;11.240;2023-06-24T13:48:55;3.47;;;1.87;;
18338;SDS011;9295;44.484;11.240;2023-06-24T13:51:26;3.20;;;1.90;;
18338;SDS011;9295;44.484;11.240;2023-06-24T13:53:55;3.70;;;2.10;;
18338;SDS011;9295;44.484;11.240;2023-06-24T13:56:24;5.07;;;1.97;;
18338;SDS011;9295;44.484;11.240;2023-06-24T13:58:53;3.77;;;2.00;;
18338;SDS011;9295;44.484;11.240;2023-06-24T14:01:22;4.73;;;2.10;;
18338;SDS011;9295;44.484;11.240;2023-06-24T14:03:51;2.90;;;1.80;;
18338;SDS011;9295;44.484;11.240;2023-06-24T14:06:20;7.00;;;2.37;;
18338;SDS011;9295;44.484;11.240;2023-06-24T14:08:51;6.70;;;1.83;;
18338;SDS011;9295;44.484;11.240;2023-06-24T14:11:20;3.83;;;1.87;;
18338;SDS011;9295;44.484;11.240;2023-06-24T14:13:49;5.57;;;1.60;;
18338;SDS011;9295;44.484;11.240;2023-06-24T14:16:21;4.70;;;2.10;;
18338;SDS011;9295;44.484;11.240;2023-06-24T14:18:49;4.43;;;2.20;;
18338;SDS011;9295;44.484;11.240;2023-06-24T14:21:18;3.40;;;1.63;;
18338;SDS011;9295;44.484;11.240;2023-06-24T14:23:47;3.50;;;1.60;;
18338;SDS011;9295;44.484;11.240;2023-06-24T14:26:20;3.20;;;1.67;;
18338;SDS011;9295;44.484;11.240;2023-06-24T14:28:48;5.50;;;1.90;;
18338;SDS011;9295;44.484;11.240;2023-06-24T14:31:17;3.20;;;1.70;;
18338;SDS011;9295;44.484;11.240;2023-06-24T14:33:46;7.67;;;1.80;;
18338;SDS011;9295;44.484;11.240;2023-06-24T14:36:14;3.80;;;1.80;;
18338;SDS011;9295;44.484;11.240;2023-06-24T14:38:43;6.30;;;1.63;;
18338;SDS011;9295;44.484;11.240;2023-06-24T14:41:12;3.23;;;1.70;;
18338;SDS011;9295;44.484;11.240;2023-06-24T14:43:42;3.43;;;1.50;;
18338;SDS011;9295;44.484;11.240;2023-06-24T14:46:11;3.47;;;1.60;;
18338;SDS011;9295;44.484;11.240;2023-06-24T14:48:40;2.47;;;1.50;;
18338;SDS011;9295;44.484;11.240;2023-06-24T14:51:08;3.23;;;1.73;;
18338;SDS011;9295;44.484;11.240;2023-06-24T14:53:37;5.30;;;1.40;;
18338;SDS011;9295;44.484;11.240;2023-06-24T14:56:07;7.80;;;1.80;;
18338;SDS011;9295;44.484;11.240;2023-06-24T14:58:35;3.90;;;1.50;;